sensor_id;sensor_type;location;lat;lon;timestamp;pressure;altitude;pressure_sealevel;temperature;humidity
64679;BME280;51094;53.864;27.676;2022-11-10T00:02:08;99312.50;;;7.30;87.54
64679;BME280;51094;53.864;27.676;2022-11-10T00:04:53;99353.34;;;7.55;88.00
64679;BME280;51094;53.864;27.676;2022-11-10T00:07:39;99357.09;;;7.49;88.04
64679;BME280;51094;53.864;27.676;2022-11-10T00:10:25;99053.53;;;5.71;87.96
64679;BME280;51094;53.864;27.676;2022-11-10T00:13:10;99342.50;;;7.48;87.63
64679;BME280;51094;53.864;27.676;2022-11-10T00:15:57;99353.09;;;7.44;87.72
64679;BME280;51094;53.864;27.676;2022-11-10T00:19:01;99341.41;;;7.37;88.23
64679;BME280;51094;53.864;27.676;2022-11-10T00:21:47;99301.34;;;7.14;87.74
64679;BME280;51094;53.864;27.676;2022-11-10T00:24:32;99207.34;;;6.53;88.06
64679;BME280;51094;53.864;27.676;2022-11-10T00:27:17;99344.47;;;7.29;88.67
64679;BME280;51094;53.864;27.676;2022-11-10T00:30:04;99234.69;;;6.57;88.56
64679;BME280;51094;53.864;27.676;2022-11-10T00:32:50;99343.88;;;7.24;88.83
64679;BME280;51094;53.864;27.676;2022-11-10T00:35:38;99348.13;;;7.25;88.52
64679;BME280;51094;53.864;27.676;2022-11-10T00:38:23;99346.38;;;7.25;88.49
64679;BME280;51094;53.864;27.676;2022-11-10T00:41:08;98947.47;;;4.81;88.94
64679;BME280;51094;53.864;27.676;2022-11-10T00:43:53;99347.47;;;7.21;89.00
64679;BME280;51094;53.864;27.676;2022-11-10T00:46:39;99283.78;;;6.89;89.68
64679;BME280;51094;53.864;27.676;2022-11-10T00:49:24;99340.53;;;7.22;89.04
64679;BME280;51094;53.864;27.676;2022-11-10T00:52:09;99225.88;;;6.46;89.17
64679;BME280;51094;53.864;27.676;2022-11-10T00:54:54;99337.13;;;7.21;89.69
64679;BME280;51094;53.864;27.676;2022-11-10T00:57:40;99338.03;;;7.20;89.32
64679;BME280;51094;53.864;27.676;2022-11-10T01:00:25;99292.94;;;6.94;88.92
64679;BME280;51094;53.864;27.676;2022-11-10T01:03:14;99338.47;;;7.13;89.51
64679;BME280;51094;53.864;27.676;2022-11-10T01:06:04;99219.44;;;6.37;89.51
64679;BME280;51094;53.864;27.676;2022-11-10T01:08:50;99218.69;;;6.35;89.60
64679;BME280;51094;53.864;27.676;2022-11-10T01:11:35;99343.72;;;7.11;89.78
64679;BME280;51094;53.864;27.676;2022-11-10T01:14:20;99189.38;;;6.20;89.50
64679;BME280;51094;53.864;27.676;2022-11-10T01:17:05;99271.44;;;6.62;89.58
64679;BME280;51094;53.864;27.676;2022-11-10T01:19:50;99339.47;;;7.10;89.24
64679;BME280;51094;53.864;27.676;2022-11-10T01:22:36;99340.38;;;7.09;89.57
64679;BME280;51094;53.864;27.676;2022-11-10T01:25:21;99359.97;;;7.13;89.82
64679;BME280;51094;53.864;27.676;2022-11-10T01:28:06;99342.63;;;7.15;89.62
64679;BME280;51094;53.864;27.676;2022-11-10T01:31:03;99349.13;;;7.22;89.13
64679;BME280;51094;53.864;27.676;2022-11-10T01:33:49;99332.63;;;7.25;89.46
64679;BME280;51094;53.864;27.676;2022-11-10T01:36:34;99130.16;;;6.02;89.30
64679;BME280;51094;53.864;27.676;2022-11-10T01:39:20;99291.75;;;7.00;88.78
64679;BME280;51094;53.864;27.676;2022-11-10T01:42:05;99287.13;;;6.91;89.15
64679;BME280;51094;53.864;27.676;2022-11-10T01:48:45;99343.13;;;7.22;89.22
64679;BME280;51094;53.864;27.676;2022-11-10T01:51:38;99304.44;;;7.05;88.95
64679;BME280;51094;53.864;27.676;2022-11-10T01:54:26;99200.03;;;6.30;89.21
64679;BME280;51094;53.864;27.676;2022-11-10T01:57:14;99146.72;;;5.97;88.76
64679;BME280;51094;53.864;27.676;2022-11-10T02:00:00;99338.56;;;7.11;89.23
64679;BME280;51094;53.864;27.676;2022-11-10T02:02:56;98627.84;;;2.42;88.78
64679;BME280;51094;53.864;27.676;2022-11-10T02:05:44;99294.72;;;6.78;88.99
64679;BME280;51094;53.864;27.676;2022-11-10T02:08:29;98985.53;;;4.76;88.88
64679;BME280;51094;53.864;27.676;2022-11-10T02:11:15;99145.16;;;5.78;89.33
64679;BME280;51094;53.864;27.676;2022-11-10T02:14:00;99070.75;;;5.21;89.31
64679;BME280;51094;53.864;27.676;2022-11-10T02:16:46;99204.75;;;5.90;89.98
64679;BME280;51094;53.864;27.676;2022-11-10T02:19:39;99307.03;;;6.57;89.97
64679;BME280;51094;53.864;27.676;2022-11-10T02:22:25;99342.50;;;6.87;90.17
64679;BME280;51094;53.864;27.676;2022-11-10T02:25:15;99380.34;;;6.88;89.95
64679;BME280;51094;53.864;27.676;2022-11-10T02:28:01;99265.63;;;6.43;89.73
64679;BME280;51094;53.864;27.676;2022-11-10T02:30:47;99350.31;;;6.85;89.59
64679;BME280;51094;53.864;27.676;2022-11-10T02:33:32;99228.00;;;6.06;89.61
64679;BME280;51094;53.864;27.676;2022-11-10T02:36:18;99351.47;;;6.80;89.63
64679;BME280;51094;53.864;27.676;2022-11-10T02:39:03;99196.63;;;5.81;89.83
64679;BME280;51094;53.864;27.676;2022-11-10T02:41:48;99352.31;;;6.80;89.81
64679;BME280;51094;53.864;27.676;2022-11-10T02:44:33;99354.00;;;6.81;90.04
64679;BME280;51094;53.864;27.676;2022-11-10T02:47:18;99152.78;;;5.48;89.44
64679;BME280;51094;53.864;27.676;2022-11-10T02:50:04;99153.53;;;5.65;89.83
64679;BME280;51094;53.864;27.676;2022-11-10T02:52:49;99306.19;;;6.57;89.78
64679;BME280;51094;53.864;27.676;2022-11-10T02:55:34;99353.59;;;6.89;90.24
64679;BME280;51094;53.864;27.676;2022-11-10T02:58:19;99363.91;;;6.89;90.21
64679;BME280;51094;53.864;27.676;2022-11-10T03:01:04;99296.84;;;6.54;89.49
64679;BME280;51094;53.864;27.676;2022-11-10T03:03:50;99194.44;;;5.90;89.62
64679;BME280;51094;53.864;27.676;2022-11-10T03:06:36;99219.50;;;6.04;89.59
64679;BME280;51094;53.864;27.676;2022-11-10T03:09:21;99348.72;;;6.98;89.64
64679;BME280;51094;53.864;27.676;2022-11-10T03:12:06;99347.31;;;6.93;89.67
64679;BME280;51094;53.864;27.676;2022-11-10T03:14:51;99181.53;;;5.90;89.51
64679;BME280;51094;53.864;27.676;2022-11-10T03:17:37;99236.06;;;6.00;89.73
64679;BME280;51094;53.864;27.676;2022-11-10T03:20:22;99335.19;;;6.62;89.87
64679;BME280;51094;53.864;27.676;2022-11-10T03:23:08;99371.25;;;6.81;89.97
64679;BME280;51094;53.864;27.676;2022-11-10T03:25:53;99297.75;;;6.53;90.11
64679;BME280;51094;53.864;27.676;2022-11-10T03:28:39;99339.31;;;6.82;90.06
64679;BME280;51094;53.864;27.676;2022-11-10T03:31:24;99342.13;;;6.61;89.85
64679;BME280;51094;53.864;27.676;2022-11-10T03:34:09;99343.25;;;6.89;90.05
64679;BME280;51094;53.864;27.676;2022-11-10T03:36:54;99344.81;;;6.91;89.83
64679;BME280;51094;53.864;27.676;2022-11-10T03:39:39;99343.06;;;6.92;89.97
64679;BME280;51094;53.864;27.676;2022-11-10T03:42:25;99345.81;;;6.89;89.63
64679;BME280;51094;53.864;27.676;2022-11-10T03:45:11;99356.31;;;6.86;89.87
64679;BME280;51094;53.864;27.676;2022-11-10T03:47:56;99352.16;;;6.83;90.04
64679;BME280;51094;53.864;27.676;2022-11-10T03:50:41;99347.66;;;6.87;89.89
64679;BME280;51094;53.864;27.676;2022-11-10T03:53:26;99346.16;;;6.83;89.70
64679;BME280;51094;53.864;27.676;2022-11-10T03:56:11;99339.72;;;6.74;89.89
64679;BME280;51094;53.864;27.676;2022-11-10T03:58:57;99174.84;;;5.69;90.02
64679;BME280;51094;53.864;27.676;2022-11-10T04:01:42;99254.34;;;6.28;90.20
64679;BME280;51094;53.864;27.676;2022-11-10T04:04:27;99338.47;;;6.81;90.13
64679;BME280;51094;53.864;27.676;2022-11-10T04:07:31;99081.72;;;5.09;89.50
64679;BME280;51094;53.864;27.676;2022-11-10T04:10:35;99335.31;;;6.76;89.83
64679;BME280;51094;53.864;27.676;2022-11-10T04:13:20;99329.53;;;6.55;90.47
64679;BME280;51094;53.864;27.676;2022-11-10T04:16:24;99203.84;;;5.91;89.88
64679;BME280;51094;53.864;27.676;2022-11-10T04:19:09;99295.63;;;6.46;89.97
64679;BME280;51094;53.864;27.676;2022-11-10T04:21:54;99300.13;;;6.42;90.18
64679;BME280;51094;53.864;27.676;2022-11-10T04:24:40;99332.38;;;6.66;90.29
64679;BME280;51094;53.864;27.676;2022-11-10T04:27:25;99130.72;;;5.25;90.09
64679;BME280;51094;53.864;27.676;2022-11-10T04:30:11;99240.31;;;6.01;90.17
64679;BME280;51094;53.864;27.676;2022-11-10T04:32:56;99252.25;;;6.04;90.33
64679;BME280;51094;53.864;27.676;2022-11-10T04:35:41;99254.91;;;6.02;90.77
64679;BME280;51094;53.864;27.676;2022-11-10T04:38:26;99149.88;;;5.54;90.63
64679;BME280;51094;53.864;27.676;2022-11-10T04:41:12;99242.81;;;6.03;90.61
64679;BME280;51094;53.864;27.676;2022-11-10T04:43:58;99323.69;;;6.36;90.90
64679;BME280;51094;53.864;27.676;2022-11-10T04:46:44;99155.91;;;5.37;91.22
64679;BME280;51094;53.864;27.676;2022-11-10T04:49:29;99270.69;;;5.96;91.53
64679;BME280;51094;53.864;27.676;2022-11-10T04:52:14;99240.56;;;5.79;92.02
64679;BME280;51094;53.864;27.676;2022-11-10T04:54:59;99313.91;;;6.25;91.90
64679;BME280;51094;53.864;27.676;2022-11-10T04:57:45;99316.28;;;6.13;92.19
64679;BME280;51094;53.864;27.676;2022-11-10T05:00:31;99246.94;;;5.72;92.28
64679;BME280;51094;53.864;27.676;2022-11-10T05:03:16;99257.56;;;5.83;92.25
64679;BME280;51094;53.864;27.676;2022-11-10T05:06:02;99232.44;;;5.69;92.23
64679;BME280;51094;53.864;27.676;2022-11-10T05:08:47;99338.88;;;6.25;92.11
64679;BME280;51094;53.864;27.676;2022-11-10T05:11:32;99233.41;;;5.51;92.56
64679;BME280;51094;53.864;27.676;2022-11-10T05:14:17;99313.38;;;6.19;92.23
64679;BME280;51094;53.864;27.676;2022-11-10T05:17:03;99121.28;;;5.08;92.04
64679;BME280;51094;53.864;27.676;2022-11-10T05:19:48;99336.50;;;6.38;92.24
64679;BME280;51094;53.864;27.676;2022-11-10T05:22:33;99179.63;;;5.44;92.10
64679;BME280;51094;53.864;27.676;2022-11-10T05:25:18;99171.56;;;5.17;92.48
64679;BME280;51094;53.864;27.676;2022-11-10T05:28:05;99302.19;;;6.03;92.74
64679;BME280;51094;53.864;27.676;2022-11-10T05:30:51;99226.72;;;5.47;92.77
64679;BME280;51094;53.864;27.676;2022-11-10T05:33:37;99344.19;;;6.39;92.68
64679;BME280;51094;53.864;27.676;2022-11-10T05:36:22;99272.38;;;5.97;92.29
64679;BME280;51094;53.864;27.676;2022-11-10T05:39:07;99280.09;;;5.97;92.22
64679;BME280;51094;53.864;27.676;2022-11-10T05:41:52;99351.25;;;6.51;91.94
64679;BME280;51094;53.864;27.676;2022-11-10T05:44:37;99302.75;;;6.25;91.98
64679;BME280;51094;53.864;27.676;2022-11-10T05:47:23;99393.78;;;6.61;92.18
64679;BME280;51094;53.864;27.676;2022-11-10T05:50:09;99298.09;;;5.81;91.73
64679;BME280;51094;53.864;27.676;2022-11-10T05:52:54;99363.47;;;6.65;91.63
64679;BME280;51094;53.864;27.676;2022-11-10T05:55:40;99365.72;;;6.71;91.51
64679;BME280;51094;53.864;27.676;2022-11-10T05:58:25;99369.47;;;6.65;90.88
64679;BME280;51094;53.864;27.676;2022-11-10T06:01:10;99244.00;;;5.62;90.85
64679;BME280;51094;53.864;27.676;2022-11-10T06:03:55;99368.03;;;6.60;91.23
64679;BME280;51094;53.864;27.676;2022-11-10T06:06:40;99168.72;;;5.39;90.99
64679;BME280;51094;53.864;27.676;2022-11-10T06:09:26;99313.50;;;6.33;91.28
64679;BME280;51094;53.864;27.676;2022-11-10T06:12:11;99237.38;;;5.91;91.21
64679;BME280;51094;53.864;27.676;2022-11-10T06:14:56;99067.03;;;4.94;90.91
64679;BME280;51094;53.864;27.676;2022-11-10T06:17:44;99232.50;;;5.85;90.82
64679;BME280;51094;53.864;27.676;2022-11-10T06:20:30;99338.34;;;6.51;90.95
64679;BME280;51094;53.864;27.676;2022-11-10T06:23:16;99152.94;;;5.27;90.84
64679;BME280;51094;53.864;27.676;2022-11-10T06:26:01;99375.47;;;6.66;90.55
64679;BME280;51094;53.864;27.676;2022-11-10T06:28:46;99356.31;;;6.70;91.10
64679;BME280;51094;53.864;27.676;2022-11-10T06:31:31;99113.72;;;5.38;91.28
64679;BME280;51094;53.864;27.676;2022-11-10T06:34:16;99363.34;;;6.84;90.95
64679;BME280;51094;53.864;27.676;2022-11-10T06:37:02;99325.94;;;6.58;90.34
64679;BME280;51094;53.864;27.676;2022-11-10T06:39:47;99359.63;;;6.72;90.06
64679;BME280;51094;53.864;27.676;2022-11-10T06:42:34;99364.47;;;6.62;90.43
64679;BME280;51094;53.864;27.676;2022-11-10T06:45:19;99368.13;;;6.58;90.68
64679;BME280;51094;53.864;27.676;2022-11-10T06:48:10;99217.47;;;5.60;91.22
64679;BME280;51094;53.864;27.676;2022-11-10T06:50:59;99289.53;;;5.98;90.66
64679;BME280;51094;53.864;27.676;2022-11-10T06:53:44;99070.63;;;4.74;90.77
64679;BME280;51094;53.864;27.676;2022-11-10T06:56:30;99373.63;;;6.68;91.28
64679;BME280;51094;53.864;27.676;2022-11-10T06:59:15;99375.22;;;6.71;90.73
64679;BME280;51094;53.864;27.676;2022-11-10T07:02:00;99198.81;;;5.55;90.44
64679;BME280;51094;53.864;27.676;2022-11-10T07:04:45;99102.28;;;4.93;90.61
64679;BME280;51094;53.864;27.676;2022-11-10T07:07:31;99231.63;;;5.69;90.28
64679;BME280;51094;53.864;27.676;2022-11-10T07:10:15;99241.25;;;5.65;90.67
64679;BME280;51094;53.864;27.676;2022-11-10T07:13:02;99258.31;;;5.85;90.94
64679;BME280;51094;53.864;27.676;2022-11-10T07:15:48;99237.59;;;5.69;90.76
64679;BME280;51094;53.864;27.676;2022-11-10T07:18:34;99366.19;;;6.46;91.00
64679;BME280;51094;53.864;27.676;2022-11-10T07:21:20;99194.25;;;5.43;90.93
64679;BME280;51094;53.864;27.676;2022-11-10T07:24:06;99343.50;;;6.36;90.64
64679;BME280;51094;53.864;27.676;2022-11-10T07:26:51;99286.25;;;5.94;91.03
64679;BME280;51094;53.864;27.676;2022-11-10T07:29:36;99359.91;;;6.34;91.01
64679;BME280;51094;53.864;27.676;2022-11-10T07:32:22;99295.69;;;5.95;90.89
64679;BME280;51094;53.864;27.676;2022-11-10T07:35:11;99393.31;;;6.71;90.93
64679;BME280;51094;53.864;27.676;2022-11-10T07:37:57;99352.09;;;6.36;91.02
64679;BME280;51094;53.864;27.676;2022-11-10T07:40:45;99356.94;;;6.42;90.86
64679;BME280;51094;53.864;27.676;2022-11-10T07:43:30;99395.59;;;6.77;90.89
64679;BME280;51094;53.864;27.676;2022-11-10T07:46:16;99348.94;;;6.14;90.64
64679;BME280;51094;53.864;27.676;2022-11-10T07:49:01;99326.66;;;5.95;90.84
64679;BME280;51094;53.864;27.676;2022-11-10T07:51:47;99179.13;;;5.03;90.89
64679;BME280;51094;53.864;27.676;2022-11-10T07:54:32;99297.34;;;5.96;91.20
64679;BME280;51094;53.864;27.676;2022-11-10T07:57:17;99397.66;;;6.70;91.04
64679;BME280;51094;53.864;27.676;2022-11-10T08:00:03;99428.59;;;6.72;90.90
64679;BME280;51094;53.864;27.676;2022-11-10T08:02:49;99395.81;;;6.72;90.64
64679;BME280;51094;53.864;27.676;2022-11-10T08:05:34;99358.44;;;6.46;90.81
64679;BME280;51094;53.864;27.676;2022-11-10T08:08:20;99257.78;;;5.79;91.11
64679;BME280;51094;53.864;27.676;2022-11-10T08:11:05;99072.34;;;4.56;90.88
64679;BME280;51094;53.864;27.676;2022-11-10T08:13:51;98788.69;;;2.96;90.85
64679;BME280;51094;53.864;27.676;2022-11-10T08:16:36;99407.66;;;6.76;91.33
64679;BME280;51094;53.864;27.676;2022-11-10T08:19:21;99308.44;;;6.14;91.39
64679;BME280;51094;53.864;27.676;2022-11-10T08:22:06;99243.59;;;5.70;90.64
64679;BME280;51094;53.864;27.676;2022-11-10T08:24:52;99432.38;;;6.82;90.87
64679;BME280;51094;53.864;27.676;2022-11-10T08:27:37;99361.06;;;6.29;90.51
64679;BME280;51094;53.864;27.676;2022-11-10T08:30:22;99433.00;;;6.70;91.18
64679;BME280;51094;53.864;27.676;2022-11-10T08:33:10;99440.16;;;6.64;91.12
64679;BME280;51094;53.864;27.676;2022-11-10T08:35:56;99429.50;;;6.71;91.35
64679;BME280;51094;53.864;27.676;2022-11-10T08:38:41;99411.72;;;6.49;91.76
64679;BME280;51094;53.864;27.676;2022-11-10T08:41:26;99431.75;;;6.77;91.27
64679;BME280;51094;53.864;27.676;2022-11-10T08:44:11;99431.00;;;6.75;91.06
64679;BME280;51094;53.864;27.676;2022-11-10T08:47:04;99427.94;;;6.84;91.22
64679;BME280;51094;53.864;27.676;2022-11-10T08:49:49;99451.97;;;6.86;91.17
64679;BME280;51094;53.864;27.676;2022-11-10T08:52:35;99299.88;;;6.14;91.24
64679;BME280;51094;53.864;27.676;2022-11-10T08:55:20;99432.63;;;6.93;91.05
64679;BME280;51094;53.864;27.676;2022-11-10T08:58:06;99340.44;;;6.45;90.78
64679;BME280;51094;53.864;27.676;2022-11-10T09:00:52;99151.59;;;5.20;90.50
64679;BME280;51094;53.864;27.676;2022-11-10T09:03:39;99353.13;;;6.65;90.32
64679;BME280;51094;53.864;27.676;2022-11-10T09:06:24;99422.81;;;7.15;90.85
64679;BME280;51094;53.864;27.676;2022-11-10T09:09:10;99304.75;;;6.51;90.21
64679;BME280;51094;53.864;27.676;2022-11-10T09:11:56;99058.00;;;4.85;89.33
64679;BME280;51094;53.864;27.676;2022-11-10T09:14:41;99331.97;;;6.74;90.29
64679;BME280;51094;53.864;27.676;2022-11-10T09:17:30;99382.59;;;7.10;89.82
64679;BME280;51094;53.864;27.676;2022-11-10T09:20:15;99422.06;;;7.29;89.64
64679;BME280;51094;53.864;27.676;2022-11-10T09:23:08;99070.75;;;5.21;89.50
64679;BME280;51094;53.864;27.676;2022-11-10T09:25:55;99125.72;;;5.39;88.37
64679;BME280;51094;53.864;27.676;2022-11-10T09:28:40;99320.44;;;6.64;89.37
64679;BME280;51094;53.864;27.676;2022-11-10T09:31:25;99404.03;;;7.27;89.39
64679;BME280;51094;53.864;27.676;2022-11-10T09:34:11;99419.22;;;7.33;89.57
64679;BME280;51094;53.864;27.676;2022-11-10T09:36:56;99217.56;;;6.08;88.87
64679;BME280;51094;53.864;27.676;2022-11-10T09:39:41;99345.00;;;6.88;89.36
64679;BME280;51094;53.864;27.676;2022-11-10T09:42:35;99321.03;;;6.69;88.80
64679;BME280;51094;53.864;27.676;2022-11-10T09:45:25;99194.44;;;5.73;89.09
64679;BME280;51094;53.864;27.676;2022-11-10T09:48:28;99376.00;;;7.04;89.14
64679;BME280;51094;53.864;27.676;2022-11-10T09:51:18;99192.13;;;5.84;89.06
64679;BME280;51094;53.864;27.676;2022-11-10T09:54:45;99418.06;;;7.23;89.27
64679;BME280;51094;53.864;27.676;2022-11-10T09:57:33;99164.44;;;5.55;89.29
64679;BME280;51094;53.864;27.676;2022-11-10T10:00:18;99279.41;;;6.26;89.45
64679;BME280;51094;53.864;27.676;2022-11-10T10:03:05;99186.97;;;5.84;89.47
64679;BME280;51094;53.864;27.676;2022-11-10T10:06:14;99356.06;;;7.06;89.92
64679;BME280;51094;53.864;27.676;2022-11-10T10:12:17;99320.09;;;7.17;88.83
64679;BME280;51094;53.864;27.676;2022-11-10T10:22:03;99408.41;;;7.57;88.44
64679;BME280;51094;53.864;27.676;2022-11-10T10:24:53;99403.25;;;7.57;88.29
64679;BME280;51094;53.864;27.676;2022-11-10T10:27:43;99445.75;;;7.53;88.06
64679;BME280;51094;53.864;27.676;2022-11-10T10:30:30;99363.81;;;7.22;88.41
64679;BME280;51094;53.864;27.676;2022-11-10T10:33:20;99238.09;;;6.26;88.38
64679;BME280;51094;53.864;27.676;2022-11-10T10:36:09;99309.59;;;6.57;88.63
64679;BME280;51094;53.864;27.676;2022-11-10T10:39:04;99449.41;;;7.17;88.65
64679;BME280;51094;53.864;27.676;2022-11-10T10:41:50;99110.19;;;5.56;89.14
64679;BME280;51094;53.864;27.676;2022-11-10T10:44:36;99431.22;;;7.50;89.09
64679;BME280;51094;53.864;27.676;2022-11-10T10:47:35;99343.53;;;6.98;88.58
64679;BME280;51094;53.864;27.676;2022-11-10T10:53:16;99474.13;;;7.54;89.80
64679;BME280;51094;53.864;27.676;2022-11-10T10:56:16;99231.78;;;6.48;88.95
64679;BME280;51094;53.864;27.676;2022-11-10T10:59:03;99183.63;;;5.99;88.68
64679;BME280;51094;53.864;27.676;2022-11-10T11:01:53;99416.09;;;7.74;89.05
64679;BME280;51094;53.864;27.676;2022-11-10T11:04:38;99285.59;;;7.03;88.79
64679;BME280;51094;53.864;27.676;2022-11-10T11:07:25;99418.13;;;7.83;88.38
64679;BME280;51094;53.864;27.676;2022-11-10T11:10:23;99350.34;;;7.47;88.13
64679;BME280;51094;53.864;27.676;2022-11-10T11:13:20;99422.78;;;7.92;88.39
64679;BME280;51094;53.864;27.676;2022-11-10T11:16:08;99222.09;;;6.51;87.97
64679;BME280;51094;53.864;27.676;2022-11-10T11:18:54;99424.78;;;7.73;88.35
64679;BME280;51094;53.864;27.676;2022-11-10T11:21:59;99418.19;;;7.67;88.69
64679;BME280;51094;53.864;27.676;2022-11-10T11:25:10;99418.84;;;7.71;88.70
64679;BME280;51094;53.864;27.676;2022-11-10T11:28:28;99412.09;;;7.68;88.81
64679;BME280;51094;53.864;27.676;2022-11-10T11:38:30;99428.19;;;7.74;88.83
64679;BME280;51094;53.864;27.676;2022-11-10T11:44:50;99420.78;;;7.67;88.97
64679;BME280;51094;53.864;27.676;2022-11-10T11:50:49;99358.81;;;7.34;88.30
64679;BME280;51094;53.864;27.676;2022-11-10T11:56:44;99427.34;;;7.73;88.53
64679;BME280;51094;53.864;27.676;2022-11-10T12:09:14;99499.25;;;7.68;89.15
64679;BME280;51094;53.864;27.676;2022-11-10T12:15:23;99446.66;;;7.52;88.64
64679;BME280;51094;53.864;27.676;2022-11-10T12:18:28;99464.69;;;7.53;89.29
64679;BME280;51094;53.864;27.676;2022-11-10T12:27:31;99353.16;;;7.12;88.32
64679;BME280;51094;53.864;27.676;2022-11-10T12:30:19;99474.63;;;7.61;88.83
64679;BME280;51094;53.864;27.676;2022-11-10T12:33:13;99440.22;;;7.59;88.82
64679;BME280;51094;53.864;27.676;2022-11-10T12:36:02;99427.72;;;7.20;89.06
64679;BME280;51094;53.864;27.676;2022-11-10T12:39:03;99276.94;;;6.41;89.47
64679;BME280;51094;53.864;27.676;2022-11-10T12:41:58;99346.31;;;7.11;89.07
64679;BME280;51094;53.864;27.676;2022-11-10T12:44:48;99435.47;;;7.67;88.57
64679;BME280;51094;53.864;27.676;2022-11-10T12:47:43;99198.78;;;6.06;89.04
64679;BME280;51094;53.864;27.676;2022-11-10T12:53:35;99128.16;;;5.58;89.43
64679;BME280;51094;53.864;27.676;2022-11-10T12:56:31;98776.09;;;3.26;89.32
64679;BME280;51094;53.864;27.676;2022-11-10T13:11:06;99469.22;;;7.34;91.15
64679;BME280;51094;53.864;27.676;2022-11-10T13:14:20;99401.69;;;6.91;91.14
64679;BME280;51094;53.864;27.676;2022-11-10T13:17:07;99396.94;;;6.84;90.93
64679;BME280;51094;53.864;27.676;2022-11-10T13:19:55;99459.28;;;7.26;91.22
64679;BME280;51094;53.864;27.676;2022-11-10T13:22:58;99472.44;;;7.38;91.33
64679;BME280;51094;53.864;27.676;2022-11-10T13:25:53;99382.81;;;6.74;91.18
64679;BME280;51094;53.864;27.676;2022-11-10T13:34:30;99479.97;;;7.26;91.95
64679;BME280;51094;53.864;27.676;2022-11-10T13:43:18;99478.97;;;7.29;92.45
64679;BME280;51094;53.864;27.676;2022-11-10T13:46:06;99431.22;;;7.03;92.21
64679;BME280;51094;53.864;27.676;2022-11-10T13:49:09;99476.78;;;7.37;92.88
64679;BME280;51094;53.864;27.676;2022-11-10T13:52:14;99134.28;;;5.22;92.25
64679;BME280;51094;53.864;27.676;2022-11-10T13:55:11;99475.72;;;7.25;92.87
64679;BME280;51094;53.864;27.676;2022-11-10T13:58:06;99484.38;;;7.24;92.84
64679;BME280;51094;53.864;27.676;2022-11-10T14:01:21;99444.38;;;6.98;93.14
64679;BME280;51094;53.864;27.676;2022-11-10T14:04:06;99229.94;;;5.68;92.74
64679;BME280;51094;53.864;27.676;2022-11-10T14:06:54;99186.69;;;5.23;92.50
64679;BME280;51094;53.864;27.676;2022-11-10T14:09:43;99491.38;;;7.22;93.13
64679;BME280;51094;53.864;27.676;2022-11-10T14:15:33;99535.59;;;7.18;93.09
64679;BME280;51094;53.864;27.676;2022-11-10T14:18:24;99343.97;;;5.93;93.42
64679;BME280;51094;53.864;27.676;2022-11-10T14:21:20;99415.06;;;6.66;93.12
64679;BME280;51094;53.864;27.676;2022-11-10T14:24:15;98647.59;;;1.66;92.90
64679;BME280;51094;53.864;27.676;2022-11-10T14:27:06;99346.69;;;5.90;92.75
64679;BME280;51094;53.864;27.676;2022-11-10T14:33:10;99519.53;;;7.28;92.56
64679;BME280;51094;53.864;27.676;2022-11-10T14:35:59;99523.34;;;7.21;92.61
64679;BME280;51094;53.864;27.676;2022-11-10T14:38:45;99514.81;;;7.19;92.74
64679;BME280;51094;53.864;27.676;2022-11-10T14:41:31;99362.50;;;6.17;92.89
64679;BME280;51094;53.864;27.676;2022-11-10T14:44:25;99158.97;;;4.93;92.41
64679;BME280;51094;53.864;27.676;2022-11-10T14:47:30;99523.34;;;7.21;92.49
64679;BME280;51094;53.864;27.676;2022-11-10T14:50:27;99494.09;;;7.04;92.43
64679;BME280;51094;53.864;27.676;2022-11-10T14:53:38;99528.34;;;7.24;93.12
64679;BME280;51094;53.864;27.676;2022-11-10T14:56:31;99511.53;;;7.00;92.46
64679;BME280;51094;53.864;27.676;2022-11-10T14:59:20;99463.38;;;6.82;92.45
64679;BME280;51094;53.864;27.676;2022-11-10T15:02:13;99328.63;;;5.90;92.36
64679;BME280;51094;53.864;27.676;2022-11-10T15:05:00;99592.44;;;7.02;92.50
64679;BME280;51094;53.864;27.676;2022-11-10T15:07:46;99531.53;;;7.29;92.54
64679;BME280;51094;53.864;27.676;2022-11-10T15:16:25;99308.25;;;5.84;92.18
64679;BME280;51094;53.864;27.676;2022-11-10T15:19:28;99547.88;;;7.30;91.67
64679;BME280;51094;53.864;27.676;2022-11-10T15:22:33;99543.63;;;7.29;92.30
64679;BME280;51094;53.864;27.676;2022-11-10T15:25:22;99566.00;;;7.30;92.21
64679;BME280;51094;53.864;27.676;2022-11-10T15:30:58;99472.19;;;6.78;91.78
64679;BME280;51094;53.864;27.676;2022-11-10T15:33:47;99575.44;;;7.31;92.16
64679;BME280;51094;53.864;27.676;2022-11-10T15:36:34;99547.56;;;7.36;91.96
64679;BME280;51094;53.864;27.676;2022-11-10T15:39:22;99361.38;;;6.23;91.42
64679;BME280;51094;53.864;27.676;2022-11-10T15:42:18;99557.66;;;7.41;91.62
64679;BME280;51094;53.864;27.676;2022-11-10T15:45:05;99558.25;;;7.46;91.63
64679;BME280;51094;53.864;27.676;2022-11-10T15:47:50;99571.78;;;7.51;91.85
64679;BME280;51094;53.864;27.676;2022-11-10T15:50:36;99521.22;;;7.12;91.20
64679;BME280;51094;53.864;27.676;2022-11-10T15:53:37;99500.78;;;6.75;91.38
64679;BME280;51094;53.864;27.676;2022-11-10T15:56:23;99522.75;;;7.16;91.67
64679;BME280;51094;53.864;27.676;2022-11-10T15:59:09;99463.19;;;6.52;91.28
64679;BME280;51094;53.864;27.676;2022-11-10T16:01:55;99571.50;;;7.40;91.20
64679;BME280;51094;53.864;27.676;2022-11-10T16:04:40;99379.03;;;5.97;91.21
64679;BME280;51094;53.864;27.676;2022-11-10T16:07:25;99577.34;;;7.27;91.82
64679;BME280;51094;53.864;27.676;2022-11-10T16:10:12;99320.47;;;5.63;91.57
64679;BME280;51094;53.864;27.676;2022-11-10T16:12:58;99497.16;;;6.61;92.10
64679;BME280;51094;53.864;27.676;2022-11-10T16:15:44;99521.09;;;6.98;91.63
64679;BME280;51094;53.864;27.676;2022-11-10T16:18:29;99544.44;;;7.14;91.23
64679;BME280;51094;53.864;27.676;2022-11-10T16:21:20;99563.59;;;7.10;91.33
64679;BME280;51094;53.864;27.676;2022-11-10T16:24:06;99323.50;;;5.72;90.85
64679;BME280;51094;53.864;27.676;2022-11-10T16:26:53;99594.38;;;7.31;91.60